sensor_id;sensor_type;location;lat;lon;timestamp;pressure;altitude;pressure_sealevel;temperature;humidity
7109;BME280;29079;41.930;25.558;2022-11-15T00:02:07;100395.75;;;4.36;90.69
7109;BME280;29079;41.930;25.558;2022-11-15T00:04:37;100398.38;;;4.36;90.30
7109;BME280;29079;41.930;25.558;2022-11-15T00:07:06;100402.75;;;4.38;90.97
7109;BME280;29079;41.930;25.558;2022-11-15T00:09:49;100393.91;;;4.39;90.67
7109;BME280;29079;41.930;25.558;2022-11-15T00:12:19;100391.88;;;4.61;90.13
7109;BME280;29079;41.930;25.558;2022-11-15T00:14:51;100395.44;;;4.78;89.71
7109;BME280;29079;41.930;25.558;2022-11-15T00:17:21;100393.50;;;4.81;89.55
7109;BME280;29079;41.930;25.558;2022-11-15T00:19:50;100390.63;;;4.68;90.19
7109;BME280;29079;41.930;25.558;2022-11-15T00:22:20;100394.59;;;4.77;90.14
7109;BME280;29079;41.930;25.558;2022-11-15T00:24:49;100385.34;;;4.68;90.52
7109;BME280;29079;41.930;25.558;2022-11-15T00:27:19;100384.03;;;4.77;89.94
7109;BME280;29079;41.930;25.558;2022-11-15T00:29:50;100387.31;;;4.82;89.80
7109;BME280;29079;41.930;25.558;2022-11-15T00:32:20;100376.94;;;4.78;90.31
7109;BME280;29079;41.930;25.558;2022-11-15T00:34:50;100374.59;;;4.89;90.31
7109;BME280;29079;41.930;25.558;2022-11-15T00:37:19;100373.50;;;4.93;90.09
7109;BME280;29079;41.930;25.558;2022-11-15T00:39:49;100373.13;;;4.83;91.90
7109;BME280;29079;41.930;25.558;2022-11-15T00:42:18;100368.53;;;4.87;92.32
7109;BME280;29079;41.930;25.558;2022-11-15T00:44:48;100365.56;;;4.93;92.86
7109;BME280;29079;41.930;25.558;2022-11-15T00:47:19;100365.31;;;4.98;93.11
7109;BME280;29079;41.930;25.558;2022-11-15T00:49:48;100367.97;;;4.98;94.03
7109;BME280;29079;41.930;25.558;2022-11-15T00:52:18;100367.13;;;4.97;94.64
7109;BME280;29079;41.930;25.558;2022-11-15T00:54:48;100359.34;;;4.94;95.18
7109;BME280;29079;41.930;25.558;2022-11-15T00:57:17;100362.44;;;5.02;96.08
7109;BME280;29079;41.930;25.558;2022-11-15T00:59:47;100356.31;;;5.02;95.75
7109;BME280;29079;41.930;25.558;2022-11-15T01:02:16;100356.31;;;5.02;96.18
7109;BME280;29079;41.930;25.558;2022-11-15T01:04:47;100353.09;;;5.13;96.53
7109;BME280;29079;41.930;25.558;2022-11-15T01:07:17;100348.13;;;5.06;97.16
7109;BME280;29079;41.930;25.558;2022-11-15T01:09:47;100351.63;;;5.07;97.65
7109;BME280;29079;41.930;25.558;2022-11-15T01:12:17;100357.06;;;5.21;97.98
7109;BME280;29079;41.930;25.558;2022-11-15T01:14:47;100351.84;;;5.20;98.06
7109;BME280;29079;41.930;25.558;2022-11-15T01:17:17;100343.03;;;5.19;99.04
7109;BME280;29079;41.930;25.558;2022-11-15T01:19:48;100349.91;;;5.39;99.03
7109;BME280;29079;41.930;25.558;2022-11-15T01:22:18;100344.19;;;5.47;98.85
7109;BME280;29079;41.930;25.558;2022-11-15T01:24:48;100342.06;;;5.54;98.39
7109;BME280;29079;41.930;25.558;2022-11-15T01:27:18;100342.91;;;5.54;98.58
7109;BME280;29079;41.930;25.558;2022-11-15T01:29:48;100343.44;;;5.61;98.70
7109;BME280;29079;41.930;25.558;2022-11-15T01:32:17;100337.78;;;5.67;98.71
7109;BME280;29079;41.930;25.558;2022-11-15T01:34:48;100342.84;;;5.72;98.83
7109;BME280;29079;41.930;25.558;2022-11-15T01:37:18;100342.84;;;5.72;98.89
7109;BME280;29079;41.930;25.558;2022-11-15T01:39:47;100331.56;;;5.68;99.79
7109;BME280;29079;41.930;25.558;2022-11-15T01:42:17;100341.06;;;5.56;100.00
7109;BME280;29079;41.930;25.558;2022-11-15T01:44:48;100332.75;;;5.63;100.00
7109;BME280;29079;41.930;25.558;2022-11-15T01:47:19;100337.78;;;5.67;100.00
7109;BME280;29079;41.930;25.558;2022-11-15T01:49:51;100336.03;;;5.68;100.00
7109;BME280;29079;41.930;25.558;2022-11-15T01:52:24;100336.94;;;5.83;100.00
7109;BME280;29079;41.930;25.558;2022-11-15T01:54:56;100335.66;;;5.90;100.00
7109;BME280;29079;41.930;25.558;2022-11-15T01:57:26;100328.28;;;5.95;99.17
7109;BME280;29079;41.930;25.558;2022-11-15T01:59:55;100328.16;;;5.98;99.47
7109;BME280;29079;41.930;25.558;2022-11-15T02:02:26;100326.28;;;6.00;99.10
7109;BME280;29079;41.930;25.558;2022-11-15T02:04:57;100327.91;;;6.03;99.16
7109;BME280;29079;41.930;25.558;2022-11-15T02:07:27;100331.31;;;6.05;98.83
7109;BME280;29079;41.930;25.558;2022-11-15T02:09:57;100320.44;;;6.09;98.58
7109;BME280;29079;41.930;25.558;2022-11-15T02:12:29;100321.41;;;6.08;98.62
7109;BME280;29079;41.930;25.558;2022-11-15T02:15:00;100323.88;;;6.12;99.15
7109;BME280;29079;41.930;25.558;2022-11-15T02:17:45;100322.16;;;6.10;98.98
7109;BME280;29079;41.930;25.558;2022-11-15T02:20:41;100321.41;;;6.08;98.35
7109;BME280;29079;41.930;25.558;2022-11-15T02:23:22;100318.81;;;6.07;98.91
7109;BME280;29079;41.930;25.558;2022-11-15T02:26:05;100310.97;;;6.05;98.93
7109;BME280;29079;41.930;25.558;2022-11-15T02:28:41;100314.03;;;6.14;98.19
7109;BME280;29079;41.930;25.558;2022-11-15T02:31:17;100311.47;;;6.12;99.21
7109;BME280;29079;41.930;25.558;2022-11-15T02:33:52;100319.34;;;6.14;99.30
7109;BME280;29079;41.930;25.558;2022-11-15T02:36:25;100312.31;;;6.13;99.52
7109;BME280;29079;41.930;25.558;2022-11-15T02:39:05;100315.06;;;6.11;99.63
7109;BME280;29079;41.930;25.558;2022-11-15T02:41:41;100313.59;;;6.05;99.49
7109;BME280;29079;41.930;25.558;2022-11-15T02:44:16;100310.19;;;6.03;100.00
7109;BME280;29079;41.930;25.558;2022-11-15T02:46:48;100309.66;;;6.13;99.94
7109;BME280;29079;41.930;25.558;2022-11-15T02:49:36;100315.75;;;6.15;99.17
7109;BME280;29079;41.930;25.558;2022-11-15T02:52:06;100313.19;;;6.13;100.00
7109;BME280;29079;41.930;25.558;2022-11-15T02:54:36;100319.16;;;6.17;99.45
7109;BME280;29079;41.930;25.558;2022-11-15T02:57:06;100306.06;;;6.14;99.44
7109;BME280;29079;41.930;25.558;2022-11-15T03:02:43;100310.81;;;5.92;100.00
7109;BME280;29079;41.930;25.558;2022-11-15T03:05:19;100305.31;;;5.96;100.00
7109;BME280;29079;41.930;25.558;2022-11-15T03:07:54;100306.63;;;5.88;100.00
7109;BME280;29079;41.930;25.558;2022-11-15T03:10:32;100306.94;;;5.82;100.00
7109;BME280;29079;41.930;25.558;2022-11-15T03:13:07;100303.28;;;5.85;100.00
7109;BME280;29079;41.930;25.558;2022-11-15T03:15:44;100306.28;;;5.79;100.00
7109;BME280;29079;41.930;25.558;2022-11-15T03:18:19;100306.53;;;5.74;100.00
7109;BME280;29079;41.930;25.558;2022-11-15T03:20:50;100310.97;;;5.73;100.00
7109;BME280;29079;41.930;25.558;2022-11-15T03:23:21;100304.72;;;5.74;100.00
7109;BME280;29079;41.930;25.558;2022-11-15T03:25:51;100306.00;;;5.67;100.00
7109;BME280;29079;41.930;25.558;2022-11-15T03:28:23;100306.72;;;5.71;100.00
7109;BME280;29079;41.930;25.558;2022-11-15T03:30:54;100303.38;;;5.67;100.00
7109;BME280;29079;41.930;25.558;2022-11-15T03:33:26;100302.34;;;5.70;100.00
7109;BME280;29079;41.930;25.558;2022-11-15T03:35:57;100293.22;;;5.75;100.00
7109;BME280;29079;41.930;25.558;2022-11-15T03:38:29;100294.91;;;5.77;100.00
7109;BME280;29079;41.930;25.558;2022-11-15T03:41:00;100288.31;;;5.84;100.00
7109;BME280;29079;41.930;25.558;2022-11-15T03:43:33;100290.94;;;5.84;100.00
7109;BME280;29079;41.930;25.558;2022-11-15T03:46:04;100292.28;;;5.77;100.00
7109;BME280;29079;41.930;25.558;2022-11-15T03:48:39;100282.44;;;5.79;100.00
7109;BME280;29079;41.930;25.558;2022-11-15T03:51:10;100289.78;;;5.73;100.00
7109;BME280;29079;41.930;25.558;2022-11-15T03:53:40;100283.63;;;5.73;100.00
7109;BME280;29079;41.930;25.558;2022-11-15T03:56:10;100281.69;;;5.77;100.00
7109;BME280;29079;41.930;25.558;2022-11-15T03:58:39;100286.19;;;5.74;100.00
7109;BME280;29079;41.930;25.558;2022-11-15T04:01:09;100282.78;;;5.72;100.00
7109;BME280;29079;41.930;25.558;2022-11-15T04:03:40;100280.63;;;5.79;99.87
7109;BME280;29079;41.930;25.558;2022-11-15T04:06:10;100277.88;;;5.81;99.81
7109;BME280;29079;41.930;25.558;2022-11-15T04:08:39;100281.41;;;5.81;99.21
7109;BME280;29079;41.930;25.558;2022-11-15T04:11:09;100279.50;;;5.83;99.66
7109;BME280;29079;41.930;25.558;2022-11-15T04:13:39;100281.59;;;5.78;99.48
7109;BME280;29079;41.930;25.558;2022-11-15T04:16:09;100281.91;;;5.88;99.46
7109;BME280;29079;41.930;25.558;2022-11-15T04:18:40;100277.13;;;5.79;99.42
7109;BME280;29079;41.930;25.558;2022-11-15T04:21:10;100268.94;;;5.67;99.75
7109;BME280;29079;41.930;25.558;2022-11-15T04:23:56;100262.09;;;5.79;100.00
7109;BME280;29079;41.930;25.558;2022-11-15T04:26:41;100265.34;;;5.84;99.20
7109;BME280;29079;41.930;25.558;2022-11-15T04:29:11;100270.81;;;5.81;99.82
7109;BME280;29079;41.930;25.558;2022-11-15T04:31:58;100265.44;;;5.83;99.28
7109;BME280;29079;41.930;25.558;2022-11-15T04:34:29;100259.16;;;5.84;99.65
7109;BME280;29079;41.930;25.558;2022-11-15T04:36:59;100264.97;;;5.90;99.23
7109;BME280;29079;41.930;25.558;2022-11-15T04:39:44;100259.16;;;5.84;99.27
7109;BME280;29079;41.930;25.558;2022-11-15T04:42:13;100267.13;;;5.84;99.65
7109;BME280;29079;41.930;25.558;2022-11-15T04:44:43;100264.63;;;5.97;98.72
7109;BME280;29079;41.930;25.558;2022-11-15T04:47:12;100255.91;;;5.95;98.82
7109;BME280;29079;41.930;25.558;2022-11-15T04:49:44;100255.91;;;5.95;99.23
7109;BME280;29079;41.930;25.558;2022-11-15T04:52:13;100259.25;;;5.98;99.38
7109;BME280;29079;41.930;25.558;2022-11-15T04:54:43;100257.13;;;6.05;98.31
7109;BME280;29079;41.930;25.558;2022-11-15T04:57:12;100258.16;;;6.02;99.25
7109;BME280;29079;41.930;25.558;2022-11-15T04:59:43;100263.25;;;6.05;98.60
7109;BME280;29079;41.930;25.558;2022-11-15T05:02:12;100255.22;;;6.07;98.61
7109;BME280;29079;41.930;25.558;2022-11-15T05:04:43;100254.88;;;6.13;98.61
7109;BME280;29079;41.930;25.558;2022-11-15T05:07:14;100252.31;;;6.12;98.26
7109;BME280;29079;41.930;25.558;2022-11-15T05:09:43;100256.56;;;6.14;98.01
7109;BME280;29079;41.930;25.558;2022-11-15T05:12:13;100253.06;;;6.14;97.59
7109;BME280;29079;41.930;25.558;2022-11-15T05:14:43;100255.22;;;6.07;97.95
7109;BME280;29079;41.930;25.558;2022-11-15T05:17:13;100252.13;;;6.15;98.32
7109;BME280;29079;41.930;25.558;2022-11-15T05:19:44;100254.69;;;6.16;97.63
7109;BME280;29079;41.930;25.558;2022-11-15T05:22:14;100251.44;;;6.11;97.68
7109;BME280;29079;41.930;25.558;2022-11-15T05:24:44;100248.72;;;6.13;98.41
7109;BME280;29079;41.930;25.558;2022-11-15T05:27:13;100258.19;;;6.17;98.26
7109;BME280;29079;41.930;25.558;2022-11-15T05:29:43;100254.88;;;6.13;99.00
7109;BME280;29079;41.930;25.558;2022-11-15T05:32:12;100253.75;;;6.17;98.94
7109;BME280;29079;41.930;25.558;2022-11-15T05:34:42;100261.78;;;6.16;98.74
7109;BME280;29079;41.930;25.558;2022-11-15T05:37:14;100264.09;;;6.22;98.07
7109;BME280;29079;41.930;25.558;2022-11-15T05:39:45;100256.03;;;6.23;97.84
7109;BME280;29079;41.930;25.558;2022-11-15T05:42:14;100269.38;;;6.22;98.36
7109;BME280;29079;41.930;25.558;2022-11-15T05:44:45;100264.31;;;6.33;98.40
7109;BME280;29079;41.930;25.558;2022-11-15T05:47:17;100273.56;;;6.26;98.62
7109;BME280;29079;41.930;25.558;2022-11-15T05:49:49;100270.03;;;6.25;99.15
7109;BME280;29079;41.930;25.558;2022-11-15T05:52:22;100268.66;;;6.34;98.79
7109;BME280;29079;41.930;25.558;2022-11-15T05:54:53;100265.25;;;6.32;98.67
7109;BME280;29079;41.930;25.558;2022-11-15T05:57:23;100269.53;;;6.35;98.87
7109;BME280;29079;41.930;25.558;2022-11-15T05:59:53;100272.63;;;6.41;99.11
7109;BME280;29079;41.930;25.558;2022-11-15T06:02:23;100280.41;;;6.44;98.53
7109;BME280;29079;41.930;25.558;2022-11-15T06:04:53;100267.94;;;6.47;98.62
7109;BME280;29079;41.930;25.558;2022-11-15T06:07:23;100277.66;;;6.46;99.35
7109;BME280;29079;41.930;25.558;2022-11-15T06:09:53;100276.06;;;6.43;99.06
7109;BME280;29079;41.930;25.558;2022-11-15T06:12:23;100276.44;;;6.52;98.70
7109;BME280;29079;41.930;25.558;2022-11-15T06:14:53;100282.06;;;6.61;98.91
7109;BME280;29079;41.930;25.558;2022-11-15T06:17:22;100281.50;;;6.71;98.34
7109;BME280;29079;41.930;25.558;2022-11-15T06:19:52;100281.78;;;6.66;98.60
7109;BME280;29079;41.930;25.558;2022-11-15T06:22:21;100287.75;;;6.70;97.96
7109;BME280;29079;41.930;25.558;2022-11-15T06:24:52;100281.41;;;6.72;98.93
7109;BME280;29079;41.930;25.558;2022-11-15T06:27:22;100274.31;;;6.73;98.62
7109;BME280;29079;41.930;25.558;2022-11-15T06:29:52;100282.16;;;6.74;98.38
7109;BME280;29079;41.930;25.558;2022-11-15T06:32:21;100284.63;;;6.77;98.42
7109;BME280;29079;41.930;25.558;2022-11-15T06:34:51;100278.75;;;6.72;98.85
7109;BME280;29079;41.930;25.558;2022-11-15T06:37:20;100287.09;;;6.80;99.33
7109;BME280;29079;41.930;25.558;2022-11-15T06:39:50;100294.22;;;6.80;98.60
7109;BME280;29079;41.930;25.558;2022-11-15T06:42:21;100284.34;;;6.82;98.69
7109;BME280;29079;41.930;25.558;2022-11-15T06:44:51;100279.72;;;6.86;99.45
7109;BME280;29079;41.930;25.558;2022-11-15T06:47:20;100280.84;;;6.82;98.82
7109;BME280;29079;41.930;25.558;2022-11-15T06:49:50;100275.16;;;6.88;99.33
7109;BME280;29079;41.930;25.558;2022-11-15T06:52:20;100279.44;;;6.90;99.83
7109;BME280;29079;41.930;25.558;2022-11-15T06:54:50;100279.34;;;6.92;100.00
7109;BME280;29079;41.930;25.558;2022-11-15T06:57:19;100279.16;;;6.95;100.00
7109;BME280;29079;41.930;25.558;2022-11-15T06:59:51;100280.97;;;6.94;99.80
7109;BME280;29079;41.930;25.558;2022-11-15T07:02:20;100277.06;;;7.00;100.00
7109;BME280;29079;41.930;25.558;2022-11-15T07:04:50;100276.88;;;7.03;99.38
7109;BME280;29079;41.930;25.558;2022-11-15T07:07:19;100268.63;;;7.08;99.62
7109;BME280;29079;41.930;25.558;2022-11-15T07:09:49;100263.81;;;7.14;99.65
7109;BME280;29079;41.930;25.558;2022-11-15T07:12:19;100256.38;;;7.20;99.12
7109;BME280;29079;41.930;25.558;2022-11-15T07:14:50;100259.50;;;7.26;98.83
7109;BME280;29079;41.930;25.558;2022-11-15T07:17:20;100255.63;;;7.32;99.03
7109;BME280;29079;41.930;25.558;2022-11-15T07:19:50;100266.88;;;7.36;98.36
7109;BME280;29079;41.930;25.558;2022-11-15T07:22:20;100264.97;;;7.38;98.40
7109;BME280;29079;41.930;25.558;2022-11-15T07:24:49;100265.84;;;7.38;98.15
7109;BME280;29079;41.930;25.558;2022-11-15T07:27:19;100266.47;;;7.42;97.73
7109;BME280;29079;41.930;25.558;2022-11-15T07:29:50;100261.16;;;7.42;97.63
7109;BME280;29079;41.930;25.558;2022-11-15T07:32:20;100259.28;;;7.44;98.09
7109;BME280;29079;41.930;25.558;2022-11-15T07:34:50;100263.56;;;7.46;96.62
7109;BME280;29079;41.930;25.558;2022-11-15T07:37:19;100263.34;;;7.49;97.27
7109;BME280;29079;41.930;25.558;2022-11-15T07:39:49;100261.44;;;7.52;96.27
7109;BME280;29079;41.930;25.558;2022-11-15T07:42:18;100267.44;;;7.55;97.06
7109;BME280;29079;41.930;25.558;2022-11-15T07:45:07;100262.94;;;7.56;97.03
7109;BME280;29079;41.930;25.558;2022-11-15T07:47:37;100263.69;;;7.58;96.18
7109;BME280;29079;41.930;25.558;2022-11-15T07:50:07;100265.31;;;7.60;97.26
7109;BME280;29079;41.930;25.558;2022-11-15T07:52:36;100269.56;;;7.63;96.68
7109;BME280;29079;41.930;25.558;2022-11-15T07:55:07;100275.53;;;7.66;97.30
7109;BME280;29079;41.930;25.558;2022-11-15T07:57:36;100277.91;;;7.71;96.83
7109;BME280;29079;41.930;25.558;2022-11-15T08:00:08;100270.69;;;7.73;97.48
7109;BME280;29079;41.930;25.558;2022-11-15T08:02:38;100273.13;;;7.76;96.86
7109;BME280;29079;41.930;25.558;2022-11-15T08:05:08;100277.03;;;7.71;97.26
7109;BME280;29079;41.930;25.558;2022-11-15T08:07:38;100272.28;;;7.76;97.92
7109;BME280;29079;41.930;25.558;2022-11-15T08:10:08;100277.09;;;7.83;97.07
7109;BME280;29079;41.930;25.558;2022-11-15T08:12:41;100272.72;;;7.82;97.50
7109;BME280;29079;41.930;25.558;2022-11-15T08:15:13;100263.72;;;7.85;97.08
7109;BME280;29079;41.930;25.558;2022-11-15T08:17:42;100260.75;;;7.90;97.23
7109;BME280;29079;41.930;25.558;2022-11-15T08:20:12;100265.84;;;7.93;97.07
7109;BME280;29079;41.930;25.558;2022-11-15T08:22:41;100272.78;;;7.95;97.21
7109;BME280;29079;41.930;25.558;2022-11-15T08:25:11;100265.22;;;7.89;97.38
7109;BME280;29079;41.930;25.558;2022-11-15T08:27:41;100269.69;;;7.89;97.76
7109;BME280;29079;41.930;25.558;2022-11-15T08:30:12;100259.28;;;7.98;97.20
7109;BME280;29079;41.930;25.558;2022-11-15T08:32:44;100253.47;;;8.06;97.05
7109;BME280;29079;41.930;25.558;2022-11-15T08:35:14;100263.34;;;8.04;97.00
7109;BME280;29079;41.930;25.558;2022-11-15T08:37:43;100262.84;;;8.12;97.51
7109;BME280;29079;41.930;25.558;2022-11-15T08:40:13;100254.00;;;8.11;97.43
7109;BME280;29079;41.930;25.558;2022-11-15T08:42:43;100256.44;;;8.14;97.51
7109;BME280;29079;41.930;25.558;2022-11-15T08:45:16;100257.63;;;8.23;97.63
7109;BME280;29079;41.930;25.558;2022-11-15T08:47:46;100250.22;;;8.28;97.07
7109;BME280;29079;41.930;25.558;2022-11-15T08:50:21;100250.84;;;8.32;97.20
7109;BME280;29079;41.930;25.558;2022-11-15T08:52:51;100246.28;;;8.34;97.23
7109;BME280;29079;41.930;25.558;2022-11-15T08:55:21;100240.66;;;8.39;97.06
7109;BME280;29079;41.930;25.558;2022-11-15T08:57:52;100236.94;;;8.41;96.85
7109;BME280;29079;41.930;25.558;2022-11-15T09:00:23;100240.31;;;8.43;96.65
7109;BME280;29079;41.930;25.558;2022-11-15T09:02:52;100230.47;;;8.45;97.00
7109;BME280;29079;41.930;25.558;2022-11-15T09:05:22;100232.94;;;8.48;96.32
7109;BME280;29079;41.930;25.558;2022-11-15T09:07:52;100221.53;;;8.46;96.48
7109;BME280;29079;41.930;25.558;2022-11-15T09:10:22;100219.63;;;8.48;96.47
7109;BME280;29079;41.930;25.558;2022-11-15T09:12:53;100221.19;;;8.51;96.47
7109;BME280;29079;41.930;25.558;2022-11-15T09:15:24;100217.91;;;8.47;97.07
7109;BME280;29079;41.930;25.558;2022-11-15T09:17:54;100217.06;;;8.47;97.16
7109;BME280;29079;41.930;25.558;2022-11-15T09:20:27;100208.22;;;8.46;96.63
7109;BME280;29079;41.930;25.558;2022-11-15T09:22:59;100207.06;;;8.50;96.87
7109;BME280;29079;41.930;25.558;2022-11-15T09:25:29;100203.22;;;8.54;96.80
7109;BME280;29079;41.930;25.558;2022-11-15T09:28:00;100195.97;;;8.57;96.29
7109;BME280;29079;41.930;25.558;2022-11-15T09:30:31;100193.13;;;8.60;95.77
7109;BME280;29079;41.930;25.558;2022-11-15T09:33:05;100184.94;;;8.63;96.15
7109;BME280;29079;41.930;25.558;2022-11-15T09:35:35;100187.28;;;8.67;96.38
7109;BME280;29079;41.930;25.558;2022-11-15T09:38:04;100175.75;;;8.67;96.02
7109;BME280;29079;41.930;25.558;2022-11-15T09:40:37;100178.13;;;8.71;95.38
7109;BME280;29079;41.930;25.558;2022-11-15T09:43:23;100165.31;;;8.77;95.48
7109;BME280;29079;41.930;25.558;2022-11-15T09:45:57;100172.13;;;8.81;95.17
7109;BME280;29079;41.930;25.558;2022-11-15T09:48:34;100166.81;;;8.81;95.20
7109;BME280;29079;41.930;25.558;2022-11-15T09:51:08;100158.25;;;8.88;94.66
7109;BME280;29079;41.930;25.558;2022-11-15T09:53:43;100158.78;;;8.94;95.01
7109;BME280;29079;41.930;25.558;2022-11-15T09:56:37;100161.00;;;9.00;94.98
7109;BME280;29079;41.930;25.558;2022-11-15T09:59:13;100152.78;;;9.03;94.61
7109;BME280;29079;41.930;25.558;2022-11-15T10:01:50;100140.63;;;9.12;94.71
7109;BME280;29079;41.930;25.558;2022-11-15T10:04:23;100136.66;;;9.17;93.37
7109;BME280;29079;41.930;25.558;2022-11-15T10:06:55;100134.75;;;9.19;94.00
7109;BME280;29079;41.930;25.558;2022-11-15T10:09:29;100128.22;;;9.23;93.58
7109;BME280;29079;41.930;25.558;2022-11-15T10:12:02;100131.75;;;9.24;93.54
7109;BME280;29079;41.930;25.558;2022-11-15T10:14:32;100127.25;;;9.24;93.75
7109;BME280;29079;41.930;25.558;2022-11-15T10:19:52;100125.00;;;9.31;93.25
7109;BME280;29079;41.930;25.558;2022-11-15T10:22:32;100125.50;;;9.36;93.13
7109;BME280;29079;41.930;25.558;2022-11-15T10:25:13;100118.75;;;9.44;92.82
7109;BME280;29079;41.930;25.558;2022-11-15T10:27:50;100114.78;;;9.49;92.63
7109;BME280;29079;41.930;25.558;2022-11-15T10:30:20;100111.75;;;9.54;91.86
7109;BME280;29079;41.930;25.558;2022-11-15T10:32:50;100107.31;;;9.54;91.40
7109;BME280;29079;41.930;25.558;2022-11-15T10:35:22;100097.00;;;9.50;91.03
7109;BME280;29079;41.930;25.558;2022-11-15T10:37:52;100102.94;;;9.53;91.61
7109;BME280;29079;41.930;25.558;2022-11-15T10:40:33;100094.81;;;9.55;90.94
7109;BME280;29079;41.930;25.558;2022-11-15T10:43:04;100095.34;;;9.60;90.66
7109;BME280;29079;41.930;25.558;2022-11-15T10:45:35;100088.41;;;9.57;90.50
7109;BME280;29079;41.930;25.558;2022-11-15T10:48:23;100086.47;;;9.59;90.47
7109;BME280;29079;41.930;25.558;2022-11-15T10:50:54;100079.69;;;9.55;89.91
7109;BME280;29079;41.930;25.558;2022-11-15T10:53:26;100075.56;;;9.63;90.03
7109;BME280;29079;41.930;25.558;2022-11-15T10:55:59;100066.97;;;9.59;90.50
7109;BME280;29079;41.930;25.558;2022-11-15T10:58:33;100080.69;;;9.66;90.35
7109;BME280;29079;41.930;25.558;2022-11-15T11:01:14;100072.72;;;9.66;89.76
7109;BME280;29079;41.930;25.558;2022-11-15T11:03:45;100066.38;;;9.67;90.33
7109;BME280;29079;41.930;25.558;2022-11-15T11:06:16;100076.56;;;9.73;89.85
7109;BME280;29079;41.930;25.558;2022-11-15T11:08:53;100076.25;;;9.78;89.41
7109;BME280;29079;41.930;25.558;2022-11-15T11:11:24;100066.78;;;9.73;89.88
7109;BME280;29079;41.930;25.558;2022-11-15T11:13:54;100057.59;;;9.78;88.97
7109;BME280;29079;41.930;25.558;2022-11-15T11:19:14;100055.03;;;9.76;88.69
7109;BME280;29079;41.930;25.558;2022-11-15T11:21:46;100056.72;;;9.77;88.30
7109;BME280;29079;41.930;25.558;2022-11-15T11:24:20;100055.75;;;9.78;88.46
7109;BME280;29079;41.930;25.558;2022-11-15T11:26:57;100045.09;;;9.78;88.53
7109;BME280;29079;41.930;25.558;2022-11-15T11:29:33;100043.38;;;9.77;88.92
7109;BME280;29079;41.930;25.558;2022-11-15T11:32:09;100032.00;;;9.75;88.53
7109;BME280;29079;41.930;25.558;2022-11-15T11:34:49;100023.91;;;9.76;88.29
7109;BME280;29079;41.930;25.558;2022-11-15T11:37:24;100027.41;;;9.77;88.29
7109;BME280;29079;41.930;25.558;2022-11-15T11:40:01;100025.59;;;9.78;88.99
7109;BME280;29079;41.930;25.558;2022-11-15T11:42:43;100025.47;;;9.79;88.34
7109;BME280;29079;41.930;25.558;2022-11-15T11:45:18;100011.41;;;9.77;88.12
7109;BME280;29079;41.930;25.558;2022-11-15T11:47:51;100017.38;;;9.81;86.89
7109;BME280;29079;41.930;25.558;2022-11-15T11:50:25;100011.16;;;9.80;86.43
7109;BME280;29079;41.930;25.558;2022-11-15T11:52:58;100009.84;;;9.74;85.75
7109;BME280;29079;41.930;25.558;2022-11-15T11:55:32;100008.97;;;9.74;85.19
7109;BME280;29079;41.930;25.558;2022-11-15T11:58:06;99994.81;;;9.73;85.19
7109;BME280;29079;41.930;25.558;2022-11-15T12:00:40;99994.81;;;9.73;84.46
7109;BME280;29079;41.930;25.558;2022-11-15T12:03:11;99986.06;;;9.71;84.50
7109;BME280;29079;41.930;25.558;2022-11-15T12:05:43;99993.22;;;9.71;82.82
7109;BME280;29079;41.930;25.558;2022-11-15T12:08:18;99990.81;;;9.68;81.97
7109;BME280;29079;41.930;25.558;2022-11-15T12:10:53;99990.09;;;9.66;81.96
7109;BME280;29079;41.930;25.558;2022-11-15T12:13:25;99988.16;;;9.68;81.47
7109;BME280;29079;41.930;25.558;2022-11-15T12:15:56;99985.47;;;9.68;81.53
7109;BME280;29079;41.930;25.558;2022-11-15T12:18:37;99980.28;;;9.66;81.73
7109;BME280;29079;41.930;25.558;2022-11-15T12:21:07;99975.06;;;9.65;81.51
7109;BME280;29079;41.930;25.558;2022-11-15T12:23:44;99975.19;;;9.63;80.87
7109;BME280;29079;41.930;25.558;2022-11-15T12:26:16;99975.06;;;9.65;81.65
7109;BME280;29079;41.930;25.558;2022-11-15T12:28:49;99967.91;;;9.65;80.36
7109;BME280;29079;41.930;25.558;2022-11-15T12:31:36;99969.00;;;9.63;80.38
7109;BME280;29079;41.930;25.558;2022-11-15T12:34:13;99960.28;;;9.61;80.69
7109;BME280;29079;41.930;25.558;2022-11-15T12:36:44;99954.69;;;9.64;80.37
7109;BME280;29079;41.930;25.558;2022-11-15T12:39:16;99959.06;;;9.65;80.62
7109;BME280;29079;41.930;25.558;2022-11-15T12:44:57;99959.78;;;9.67;80.65
7109;BME280;29079;41.930;25.558;2022-11-15T12:47:28;99958.00;;;9.67;80.00
7109;BME280;29079;41.930;25.558;2022-11-15T12:49:58;99950.84;;;9.68;80.52
7109;BME280;29079;41.930;25.558;2022-11-15T12:52:27;99946.47;;;9.67;80.04
7109;BME280;29079;41.930;25.558;2022-11-15T12:54:59;99936.69;;;9.67;79.38
7109;BME280;29079;41.930;25.558;2022-11-15T12:57:34;99941.88;;;9.69;79.43
7109;BME280;29079;41.930;25.558;2022-11-15T13:03:12;99938.84;;;9.73;79.85
7109;BME280;29079;41.930;25.558;2022-11-15T13:05:53;99937.03;;;9.74;79.81
7109;BME280;29079;41.930;25.558;2022-11-15T13:08:40;99929.78;;;9.76;79.84
7109;BME280;29079;41.930;25.558;2022-11-15T13:14:04;99926.72;;;9.81;78.79
7109;BME280;29079;41.930;25.558;2022-11-15T13:16:57;99927.94;;;9.76;79.00
7109;BME280;29079;41.930;25.558;2022-11-15T13:19:27;99926.13;;;9.77;79.32
7109;BME280;29079;41.930;25.558;2022-11-15T13:21:57;99926.00;;;9.79;79.25
7109;BME280;29079;41.930;25.558;2022-11-15T13:24:41;99922.25;;;9.81;79.05
7109;BME280;29079;41.930;25.558;2022-11-15T13:27:10;99916.19;;;9.79;79.06
7109;BME280;29079;41.930;25.558;2022-11-15T13:29:46;99917.16;;;9.78;79.22
7109;BME280;29079;41.930;25.558;2022-11-15T13:32:16;99898.63;;;9.76;78.25
7109;BME280;29079;41.930;25.558;2022-11-15T13:34:46;99908.19;;;9.79;78.63
7109;BME280;29079;41.930;25.558;2022-11-15T13:37:29;99903.72;;;9.80;79.16
7109;BME280;29079;41.930;25.558;2022-11-15T13:40:10;99901.03;;;9.80;78.32
7109;BME280;29079;41.930;25.558;2022-11-15T13:42:45;99902.13;;;9.77;77.56
7109;BME280;29079;41.930;25.558;2022-11-15T13:45:18;99898.50;;;9.78;77.57